Time;durP1;ratioP1;P1;durP2;ratioP2;P2;SDS_P1;SDS_P2;PMS_P1;PMS_P2;Temp;Humidity;BMP_temperature;BMP_pressure;BME280_temperature;BME280_humidity;BME280_pressure;Samples;Min_cycle;Max_cycle;Signal;HPM_P1;HPM_P2
2023/10/26 00:02:11;;;;;;;9.47;4.60;;;;;;;15.19;77.20;99192.17;124754;1099;102142;-80
2023/10/26 00:04:40;;;;;;;10.53;5.23;;;;;;;15.20;77.93;99186.88;124974;1099;104217;-80
2023/10/26 00:07:08;;;;;;;10.80;5.20;;;;;;;15.21;77.43;99185.14;124749;1099;101945;-80
2023/10/26 00:09:37;;;;;;;10.47;5.27;;;;;;;15.22;77.08;99181.59;124842;1099;101890;-80
2023/10/26 00:12:07;;;;;;;12.13;4.87;;;;;;;15.24;77.60;99187.77;124876;1099;101971;-80
2023/10/26 00:14:36;;;;;;;9.73;5.07;;;;;;;15.25;78.29;99192.14;125001;1099;102183;-81
2023/10/26 00:17:05;;;;;;;10.90;5.07;;;;;;;15.26;78.05;99194.78;124952;1099;104057;-80
2023/10/26 00:19:35;;;;;;;14.87;6.03;;;;;;;15.25;77.71;99178.94;124853;1100;102440;-80
2023/10/26 00:22:04;;;;;;;14.30;6.17;;;;;;;15.19;77.70;99184.24;124889;1102;102280;-80
2023/10/26 00:24:34;;;;;;;12.83;5.60;;;;;;;15.12;78.26;99185.17;124886;1099;104312;-80
2023/10/26 00:27:02;;;;;;;14.63;6.20;;;;;;;15.09;77.88;99186.92;125276;1098;104124;-80
2023/10/26 00:29:31;;;;;;;15.87;6.60;;;;;;;15.11;78.54;99168.42;124902;1099;104070;-80
2023/10/26 00:31:59;;;;;;;16.57;6.47;;;;;;;15.10;77.71;99154.34;124893;1099;102262;-80
2023/10/26 00:34:28;;;;;;;15.37;6.67;;;;;;;15.10;78.28;99141.13;124896;1099;104214;-79
2023/10/26 00:36:57;;;;;;;12.83;6.07;;;;;;;15.08;77.70;99150.84;124982;1099;104242;-80
2023/10/26 00:39:25;;;;;;;12.83;6.27;;;;;;;15.09;78.07;99149.93;124874;1099;104086;-80
2023/10/26 00:41:55;;;;;;;14.83;6.83;;;;;;;15.07;78.52;99150.84;124920;1099;102121;-80
2023/10/26 00:44:24;;;;;;;15.63;6.53;;;;;;;15.05;78.58;99158.78;124921;1099;104233;-80
2023/10/26 00:46:54;;;;;;;14.13;6.60;;;;;;;15.05;78.66;99166.70;124885;1102;102263;-79
2023/10/26 00:49:23;;;;;;;15.13;5.97;;;;;;;15.07;78.38;99150.84;124881;1099;102200;-79
2023/10/26 00:51:55;;;;;;;12.50;5.70;;;;;;;15.06;78.65;99139.37;124864;1099;104310;-79
2023/10/26 00:54:27;;;;;;;11.83;5.87;;;;;;;15.06;79.09;99144.66;124822;1099;104217;-79
2023/10/26 00:56:56;;;;;;;12.20;6.03;;;;;;;15.05;79.12;99158.78;124834;1099;104219;-79
2023/10/26 00:59:27;;;;;;;15.73;7.33;;;;;;;15.03;78.31;99160.52;124919;1102;104371;-80
2023/10/26 01:01:58;;;;;;;15.40;6.67;;;;;;;15.02;79.41;99150.86;124854;1099;102192;-79
2023/10/26 01:04:29;;;;;;;16.60;6.90;;;;;;;15.02;79.24;99161.43;124844;1099;104475;-79
2023/10/26 01:06:58;;;;;;;16.70;7.03;;;;;;;14.99;78.83;99161.44;124825;1099;102233;-78
2023/10/26 01:09:27;;;;;;;13.13;6.30;;;;;;;14.99;79.59;99171.11;124872;1099;104208;-78
2023/10/26 01:11:57;;;;;;;11.83;6.10;;;;;;;14.97;79.47;99154.39;124785;1102;102233;-79
2023/10/26 01:14:27;;;;;;;13.67;6.37;;;;;;;14.94;78.90;99155.27;124816;1099;104278;-79
2023/10/26 01:16:56;;;;;;;11.57;5.53;;;;;;;14.89;79.13;99157.06;124863;1099;102690;-78
2023/10/26 01:19:39;;;;;;;12.47;6.17;;;;;;;14.87;78.58;99172.05;124790;1099;104246;-79
2023/10/26 01:22:08;;;;;;;13.23;5.87;;;;;;;14.86;78.70;99173.78;124929;1099;101827;-79
2023/10/26 01:24:38;;;;;;;14.10;5.40;;;;;;;14.87;79.32;99177.33;124838;1102;104284;-79
2023/10/26 01:27:07;;;;;;;12.13;5.50;;;;;;;14.89;79.52;99184.34;124848;1102;104265;-79
2023/10/26 01:29:36;;;;;;;9.70;5.47;;;;;;;14.92;79.90;99189.61;124798;1099;104233;-79
2023/10/26 01:32:05;;;;;;;13.37;6.00;;;;;;;14.93;79.91;99179.95;124868;1099;101830;-79
2023/10/26 01:34:34;;;;;;;9.67;5.10;;;;;;;14.96;79.11;99181.68;124819;1099;104233;-80
2023/10/26 01:37:05;;;;;;;9.90;4.73;;;;;;;14.98;79.51;99179.94;124853;1099;104175;-80
2023/10/26 01:39:38;;;;;;;12.83;5.07;;;;;;;14.99;79.59;99184.31;124854;1099;102162;-79
2023/10/26 01:42:09;;;;;;;12.20;5.30;;;;;;;15.00;79.16;99194.00;124853;1099;102493;-79
2023/10/26 01:44:39;;;;;;;11.10;4.87;;;;;;;15.00;79.49;99199.29;124885;1099;104175;-80
2023/10/26 01:47:07;;;;;;;10.97;5.03;;;;;;;15.01;79.92;99191.36;124853;1099;104242;-80
2023/10/26 01:49:36;;;;;;;11.33;5.17;;;;;;;14.94;80.25;99172.89;124913;1099;104178;-79
2023/10/26 01:52:05;;;;;;;11.23;4.80;;;;;;;15.03;79.73;99184.30;124879;1099;104105;-78
2023/10/26 01:54:35;;;;;;;10.10;5.17;;;;;;;15.01;80.42;99187.84;124909;1099;102041;-79
2023/10/26 01:57:04;;;;;;;9.27;4.60;;;;;;;15.00;79.69;99197.52;124935;1099;101945;-79
2023/10/26 01:59:33;;;;;;;10.13;4.97;;;;;;;15.00;79.81;99196.64;124865;1099;104309;-79
2023/10/26 02:02:01;;;;;;;11.80;5.00;;;;;;;15.00;80.40;99202.80;124936;1102;101945;-80
2023/10/26 02:04:30;;;;;;;9.07;4.90;;;;;;;15.00;80.73;99207.21;124893;1099;102087;-79
2023/10/26 02:06:59;;;;;;;12.40;5.17;;;;;;;15.00;79.94;99207.21;124938;1099;102096;-80
2023/10/26 02:09:27;;;;;;;12.50;5.40;;;;;;;14.98;79.87;99203.70;124881;1099;104172;-79
2023/10/26 02:11:56;;;;;;;14.23;5.97;;;;;;;14.95;80.86;99204.58;124796;1102;104242;-80
2023/10/26 02:14:25;;;;;;;14.27;5.97;;;;;;;14.94;80.90;99194.02;124889;1099;102000;-80
2023/10/26 02:16:54;;;;;;;17.50;6.47;;;;;;;14.92;80.02;99208.10;124869;1099;104236;-80
2023/10/26 02:19:22;;;;;;;12.40;6.63;;;;;;;14.88;80.87;99205.47;124774;1102;104194;-79
2023/10/26 02:21:51;;;;;;;14.90;6.80;;;;;;;14.86;80.61;99212.53;124889;1099;104286;-79
2023/10/26 02:24:20;;;;;;;12.43;5.77;;;;;;;14.83;81.00;99228.38;124776;1100;104214;-79
2023/10/26 02:26:48;;;;;;;13.80;5.53;;;;;;;14.80;80.33;99226.61;124889;1099;102262;-80
2023/10/26 02:29:17;;;;;;;12.83;6.50;;;;;;;14.79;80.25;99226.62;124910;1099;104339;-80
2023/10/26 02:31:46;;;;;;;14.70;6.07;;;;;;;14.77;80.66;99236.31;124861;1102;104105;-79
2023/10/26 02:34:14;;;;;;;13.60;6.47;;;;;;;14.74;80.37;99238.09;124888;1099;104193;-79
2023/10/26 02:36:43;;;;;;;12.00;6.23;;;;;;;14.71;81.10;99238.09;124850;1099;104248;-79
2023/10/26 02:39:12;;;;;;;17.27;7.03;;;;;;;14.69;80.92;99231.04;124870;1100;104172;-79
2023/10/26 02:41:41;;;;;;;13.57;6.33;;;;;;;14.69;81.21;99233.68;124806;1099;104297;-79
2023/10/26 02:44:10;;;;;;;18.33;7.40;;;;;;;14.68;81.20;99240.73;124851;1099;102068;-80
2023/10/26 02:46:38;;;;;;;15.60;7.00;;;;;;;14.68;80.47;99240.73;124949;1099;104174;-80
2023/10/26 02:49:07;;;;;;;16.67;7.13;;;;;;;14.68;81.56;99248.66;125160;1098;104172;-80
2023/10/26 02:51:36;;;;;;;15.63;6.63;;;;;;;14.68;81.61;99253.06;125148;1099;101846;-79
2023/10/26 02:54:05;;;;;;;16.60;7.30;;;;;;;14.65;80.90;99248.66;124826;1099;104307;-79
2023/10/26 02:56:33;;;;;;;15.00;6.93;;;;;;;14.60;81.13;99244.22;125103;1099;103269;-80
2023/10/26 02:59:02;;;;;;;15.80;6.77;;;;;;;14.58;80.63;99240.70;125019;1099;104172;-80
2023/10/26 03:01:33;;;;;;;14.80;6.50;;;;;;;14.58;80.87;99230.15;124960;1099;104172;-80
2023/10/26 03:04:03;;;;;;;15.57;6.50;;;;;;;14.57;81.21;99226.64;125121;1099;104223;-80
2023/10/26 03:06:37;;;;;;;13.20;6.50;;;;;;;14.58;81.95;99228.38;125172;1099;102170;-80
2023/10/26 03:09:08;;;;;;;17.33;7.53;;;;;;;14.58;81.65;99230.15;125003;1102;104322;-80
2023/10/26 03:11:37;;;;;;;16.23;7.37;;;;;;;14.56;81.95;99227.51;124939;1099;104192;-79
2023/10/26 03:14:05;;;;;;;14.93;6.80;;;;;;;14.56;81.74;99227.51;125192;1099;102450;-80
2023/10/26 03:16:34;;;;;;;13.47;6.77;;;;;;;14.53;81.49;99222.23;125035;1099;104297;-79
2023/10/26 03:19:03;;;;;;;17.37;7.80;;;;;;;14.47;81.09;99227.52;124920;1099;101968;-79
2023/10/26 03:21:31;;;;;;;17.60;8.27;;;;;;;14.43;81.19;99221.37;125035;1098;102887;-80
2023/10/26 03:24:00;;;;;;;19.63;8.97;;;;;;;14.42;81.24;99235.44;125237;1099;102337;-80
2023/10/26 03:26:29;;;;;;;21.40;9.10;;;;;;;14.41;82.35;99232.80;124891;1099;102140;-80
2023/10/26 03:28:58;;;;;;;20.43;9.40;;;;;;;14.41;82.24;99232.80;125032;1099;103268;-80
2023/10/26 03:31:26;;;;;;;21.07;8.73;;;;;;;14.41;82.00;99233.66;125052;1099;102148;-79
2023/10/26 03:33:55;;;;;;;23.15;8.75;;;;;;;14.42;82.39;99240.71;125007;1099;104351;-80
2023/10/26 03:36:24;;;;;;;20.30;8.53;;;;;;;14.42;82.09;99243.34;125091;1099;104236;-79
2023/10/26 03:38:53;;;;;;;19.33;9.37;;;;;;;14.44;81.86;99236.30;125049;1099;104255;-79
2023/10/26 03:41:21;;;;;;;17.67;8.93;;;;;;;14.43;82.46;99223.11;125042;1099;101935;-80
2023/10/26 03:43:50;;;;;;;21.80;9.03;;;;;;;14.43;82.22;99216.09;124871;1099;102077;-80
2023/10/26 03:46:19;;;;;;;24.53;9.00;;;;;;;14.39;81.80;99225.75;124948;1099;104300;-80
2023/10/26 03:48:48;;;;;;;20.60;9.10;;;;;;;14.37;82.23;99227.52;125107;1099;104287;-80
2023/10/26 03:51:16;;;;;;;20.90;8.43;;;;;;;14.37;82.79;99214.32;124988;1099;104182;-80
2023/10/26 03:53:45;;;;;;;18.83;8.70;;;;;;;14.38;82.93;99210.81;125009;1099;104179;-79
2023/10/26 03:56:14;;;;;;;21.80;8.73;;;;;;;14.39;81.88;99215.19;124853;1102;102079;-80
2023/10/26 03:58:42;;;;;;;20.27;9.47;;;;;;;14.42;82.59;99216.09;125179;1099;102070;-80
2023/10/26 04:01:12;;;;;;;21.10;9.30;;;;;;;14.41;82.12;99212.55;125100;1099;102357;-80
2023/10/26 04:03:40;;;;;;;16.27;7.87;;;;;;;14.40;82.88;99210.81;125029;1099;104175;-80
2023/10/26 04:06:10;;;;;;;15.70;7.63;;;;;;;14.39;81.93;99207.27;124951;1099;102047;-80
2023/10/26 04:08:39;;;;;;;19.30;9.33;;;;;;;14.38;82.75;99194.98;125118;1099;101948;-77
2023/10/26 04:11:07;;;;;;;20.90;9.00;;;;;;;14.38;82.36;99196.72;124741;1099;104529;-78
2023/10/26 04:13:36;;;;;;;21.10;8.77;;;;;;;14.39;82.31;99194.08;125106;1099;104367;-79
2023/10/26 04:16:07;;;;;;;26.43;8.80;;;;;;;14.37;82.34;99195.84;125134;1099;104274;-79
2023/10/26 04:18:36;;;;;;;20.77;9.10;;;;;;;14.36;83.28;99194.08;125313;1098;104245;-79
2023/10/26 04:21:05;;;;;;;21.40;8.57;;;;;;;14.33;83.40;99202.00;124914;1099;104156;-80
2023/10/26 04:23:35;;;;;;;20.23;9.40;;;;;;;14.33;82.72;99193.21;125207;1099;104201;-80
2023/10/26 04:26:04;;;;;;;23.80;9.45;;;;;;;14.31;83.01;99198.48;125008;1098;104171;-79
2023/10/26 04:28:33;;;;;;;20.03;9.23;;;;;;;14.31;83.50;99201.13;125199;1099;104354;-79
2023/10/26 04:31:04;;;;;;;21.33;8.87;;;;;;;14.31;82.52;99203.77;125518;1099;101916;-79
2023/10/26 04:33:32;;;;;;;18.83;8.27;;;;;;;14.30;83.29;99201.13;125366;1099;102204;-82
2023/10/26 04:36:02;;;;;;;18.73;7.63;;;;;;;14.31;83.11;99203.77;125602;1099;104374;-82
2023/10/26 04:38:31;;;;;;;20.77;8.13;;;;;;;14.31;82.80;99203.77;125187;1099;103328;-79
2023/10/26 04:40:59;;;;;;;19.73;8.43;;;;;;;14.30;82.77;99217.83;124781;1099;101878;-78
2023/10/26 04:43:29;;;;;;;18.97;8.20;;;;;;;14.29;83.69;99221.37;125066;1099;102016;-80
2023/10/26 04:45:58;;;;;;;17.80;9.00;;;;;;;14.30;82.77;99227.52;124898;1101;102322;-79
2023/10/26 04:48:26;;;;;;;18.00;8.57;;;;;;;14.29;83.07;99224.00;125113;1102;102563;-77
2023/10/26 04:50:55;;;;;;;29.53;9.67;;;;;;;14.29;82.80;99218.73;124923;1099;101844;-78
2023/10/26 04:53:24;;;;;;;22.13;8.57;;;;;;;14.27;82.71;99220.47;125065;1099;104249;-80
2023/10/26 04:55:54;;;;;;;21.40;9.03;;;;;;;14.25;83.00;99210.81;124979;1099;101820;-78
2023/10/26 04:58:23;;;;;;;18.90;8.30;;;;;;;14.24;83.53;99212.55;124903;1099;102669;-77
2023/10/26 05:00:51;;;;;;;19.80;8.43;;;;;;;14.25;83.43;99213.45;124977;1101;102002;-79
2023/10/26 05:03:20;;;;;;;19.20;8.07;;;;;;;14.27;83.39;99212.55;124860;1099;104232;-77
2023/10/26 05:05:52;;;;;;;19.73;8.93;;;;;;;14.28;83.27;99226.64;125192;1099;104162;-77
2023/10/26 05:08:21;;;;;;;22.35;8.53;;;;;;;14.30;84.13;99235.43;116477;1099;10001431;-79
2023/10/26 05:10:52;;;;;;;25.17;9.37;;;;;;;14.31;83.36;99235.43;125173;1098;102120;-77
2023/10/26 05:13:22;;;;;;;22.77;9.23;;;;;;;14.32;83.23;99237.20;124917;1099;101905;-76
2023/10/26 05:15:51;;;;;;;25.57;10.70;;;;;;;14.33;83.29;99245.98;124982;1099;102249;-76
2023/10/26 05:18:19;;;;;;;25.00;11.57;;;;;;;14.30;84.17;99246.85;124727;1099;104239;-76
2023/10/26 05:20:51;;;;;;;30.30;12.73;;;;;;;14.27;83.54;99244.21;124705;1099;104444;-78
2023/10/26 05:23:20;;;;;;;27.10;12.63;;;;;;;14.22;83.73;99237.19;124805;1102;102632;-76
2023/10/26 05:25:49;;;;;;;29.10;13.20;;;;;;;14.15;83.04;99236.31;124745;1099;104648;-79
2023/10/26 05:28:18;;;;;;;30.50;13.40;;;;;;;14.13;83.23;99233.67;124825;1099;104222;-77
2023/10/26 05:30:51;;;;;;;29.03;12.50;;;;;;;14.14;83.00;99238.05;124753;1100;104163;-80
2023/10/26 05:33:19;;;;;;;28.33;13.00;;;;;;;14.15;83.37;99241.59;125146;1099;104175;-78
2023/10/26 05:35:48;;;;;;;23.77;13.00;;;;;;;14.18;83.52;99244.23;124613;1099;104223;-73
2023/10/26 05:38:19;;;;;;;30.43;12.93;;;;;;;14.23;84.25;99253.02;124885;1099;104236;-80
2023/10/26 05:40:57;;;;;;;26.80;12.00;;;;;;;14.29;83.46;99253.03;124619;1102;102412;-76
2023/10/26 05:43:26;;;;;;;24.60;12.80;;;;;;;14.33;84.04;99257.41;124641;1099;104285;-78
2023/10/26 05:46:02;;;;;;;24.13;11.10;;;;;;;14.37;83.70;99248.63;125902;1098;101951;-78
2023/10/26 05:48:34;;;;;;;23.87;10.70;;;;;;;14.42;84.08;99242.48;124372;1099;104236;-75
2023/10/26 05:51:02;;;;;;;21.23;10.23;;;;;;;14.42;83.50;99240.71;124400;1099;103491;-78
2023/10/26 05:53:31;;;;;;;28.30;12.33;;;;;;;14.39;84.45;99236.30;124631;1099;104248;-78
2023/10/26 05:56:00;;;;;;;29.77;12.67;;;;;;;14.35;83.49;99236.30;125054;1099;104144;-79
2023/10/26 05:58:29;;;;;;;25.07;13.50;;;;;;;14.34;84.17;99242.48;126322;1099;104367;-82
2023/10/26 06:00:59;;;;;;;25.47;12.87;;;;;;;14.34;84.05;99245.98;125192;1102;102986;-82
2023/10/26 06:03:29;;;;;;;24.30;12.70;;;;;;;14.37;84.32;99243.34;125385;1099;101796;-76
2023/10/26 06:06:06;;;;;;;27.17;12.53;;;;;;;14.43;83.84;99246.86;125099;1098;101960;-78
2023/10/26 06:08:50;;;;;;;24.63;10.63;;;;;;;14.48;84.56;99245.13;124719;1099;104229;-80
2023/10/26 06:11:40;;;;;;;25.17;11.00;;;;;;;14.51;84.39;99250.40;125147;1099;104294;-78
2023/10/26 06:14:15;;;;;;;28.30;12.60;;;;;;;14.50;84.32;99259.19;124564;1099;104127;-75
2023/10/26 06:16:46;;;;;;;32.77;14.33;;;;;;;14.49;84.25;99253.04;124381;1102;104307;-72
2023/10/26 06:19:15;;;;;;;27.27;14.50;;;;;;;14.48;84.25;99253.91;124406;1102;104208;-75
2023/10/26 06:21:46;;;;;;;32.53;15.73;;;;;;;14.53;84.37;99259.19;124530;1099;104329;-81
2023/10/26 06:24:22;;;;;;;34.17;15.97;;;;;;;14.60;84.54;99246.86;125923;1098;101951;-78
2023/10/26 06:26:51;;;;;;;29.93;13.50;;;;;;;14.68;84.65;99251.30;124552;1099;104625;-79
2023/10/26 06:29:23;;;;;;;25.87;12.97;;;;;;;14.74;84.46;99253.92;126116;1098;102035;-82
2023/10/26 06:31:56;;;;;;;31.60;14.63;;;;;;;14.77;84.08;99258.30;126046;1098;102269;-77
2023/10/26 06:34:26;;;;;;;29.20;14.70;;;;;;;14.83;84.86;99263.58;124965;1099;104173;-77
2023/10/26 06:36:54;;;;;;;29.10;13.73;;;;;;;14.83;84.27;99262.71;124704;1099;104124;-76
2023/10/26 06:39:23;;;;;;;32.13;14.73;;;;;;;14.82;84.12;99268.86;124630;1099;104271;-76
2023/10/26 06:41:56;;;;;;;29.53;14.47;;;;;;;14.84;84.41;99269.77;124605;1099;104293;-77
2023/10/26 06:44:24;;;;;;;28.53;13.27;;;;;;;14.88;84.09;99266.22;124507;1099;101939;-75
2023/10/26 06:46:54;;;;;;;28.10;12.87;;;;;;;14.92;84.20;99267.98;125513;1099;102640;-77
2023/10/26 06:49:23;;;;;;;28.30;13.40;;;;;;;14.99;84.09;99267.09;124714;1102;102303;-78
2023/10/26 06:51:52;;;;;;;29.10;13.17;;;;;;;15.07;84.77;99259.16;124779;1102;104223;-81
2023/10/26 06:57:05;;;;;;;29.05;13.43;;;;;;;15.24;85.17;99252.05;124885;1099;102127;-81
2023/10/26 06:59:47;;;;;;;31.93;14.07;;;;;;;15.32;84.49;99251.12;125932;1098;104410;-79
2023/10/26 07:02:18;;;;;;;29.70;13.40;;;;;;;15.41;84.85;99254.64;125600;1102;101719;-78
2023/10/26 07:04:48;;;;;;;28.50;13.83;;;;;;;15.46;84.23;99252.84;124681;1099;104223;-80
2023/10/26 07:07:17;;;;;;;26.10;13.73;;;;;;;15.51;84.91;99247.55;124984;1099;101916;-77
2023/10/26 07:09:46;;;;;;;32.20;15.27;;;;;;;15.58;84.79;99243.09;124734;1099;104169;-80
2023/10/26 07:12:19;;;;;;;32.90;14.63;;;;;;;15.63;84.82;99236.05;124706;1102;102289;-77
2023/10/26 07:14:54;;;;;;;32.80;14.73;;;;;;;15.70;84.92;99232.46;125931;1098;101763;-78
2023/10/26 07:17:24;;;;;;;33.10;13.87;;;;;;;15.76;84.28;99229.78;124708;1102;104169;-76
2023/10/26 07:19:54;;;;;;;26.17;12.70;;;;;;;15.82;84.91;99231.56;125051;1102;101839;-76
2023/10/26 07:22:26;;;;;;;31.57;14.30;;;;;;;15.86;84.01;99235.92;124728;1099;104204;-74
2023/10/26 07:24:55;;;;;;;29.20;14.00;;;;;;;15.89;84.53;99238.55;124389;1099;104632;-74
2023/10/26 07:27:24;;;;;;;27.55;13.60;;;;;;;15.93;84.16;99234.14;124676;1102;101929;-79
2023/10/26 07:29:56;;;;;;;27.87;13.40;;;;;;;15.94;83.75;99238.52;124801;1099;101723;-76
2023/10/26 07:32:28;;;;;;;31.33;12.90;;;;;;;15.95;83.88;99242.94;125210;1099;104298;-76
2023/10/26 07:34:58;;;;;;;29.60;14.10;;;;;;;15.96;84.26;99255.28;124641;1102;103385;-77
2023/10/26 07:37:28;;;;;;;30.00;13.00;;;;;;;15.99;83.79;99253.48;124974;1099;104664;-75
2023/10/26 07:39:57;;;;;;;30.87;13.57;;;;;;;16.04;83.75;99240.23;124838;1099;103153;-76
2023/10/26 07:42:26;;;;;;;29.70;14.30;;;;;;;16.07;84.10;99240.21;126545;1099;101814;-81
2023/10/26 07:47:41;;;;;;;33.87;14.87;;;;;;;16.20;83.76;99248.94;124752;1102;104163;-77
2023/10/26 07:50:19;;;;;;;29.85;14.90;;;;;;;16.30;83.58;99255.93;125296;1099;104169;-79
2023/10/26 07:52:57;;;;;;;30.10;13.70;;;;;;;16.47;83.84;99261.09;124875;1102;104246;-79
2023/10/26 07:55:27;;;;;;;45.03;19.17;;;;;;;16.63;83.64;99256.54;125591;1098;104194;-78
2023/10/26 07:57:57;;;;;;;38.13;16.30;;;;;;;16.79;83.61;99259.92;126281;1098;102146;-78
2023/10/26 08:00:26;;;;;;;27.80;14.43;;;;;;;16.90;83.09;99262.50;125456;1099;104172;-77
2023/10/26 08:02:58;;;;;;;38.10;17.43;;;;;;;17.04;83.45;99255.28;125388;1099;104274;-77
2023/10/26 08:05:26;;;;;;;31.97;14.67;;;;;;;17.20;83.49;99240.11;125450;1099;101993;-84
2023/10/26 08:07:58;;;;;;;28.97;12.87;;;;;;;17.33;83.36;99238.19;125602;1099;104188;-78
2023/10/26 08:10:28;;;;;;;30.03;12.43;;;;;;;17.45;83.48;99237.14;124914;1099;101981;-80
2023/10/26 08:12:57;;;;;;;31.73;14.00;;;;;;;17.59;82.99;99232.56;125554;1099;101958;-79
2023/10/26 08:15:28;;;;;;;34.07;13.70;;;;;;;17.73;83.07;99237.69;124769;1099;102028;-78
2023/10/26 08:17:57;;;;;;;28.95;13.15;;;;;;;17.78;82.22;99235.83;124932;1099;102118;-78
2023/10/26 08:20:25;;;;;;;31.13;13.40;;;;;;;17.80;81.78;99238.47;125478;1099;104178;-76
2023/10/26 08:22:56;;;;;;;28.90;12.20;;;;;;;17.84;81.99;99237.53;125581;1099;103303;-81
2023/10/26 08:25:26;;;;;;;27.27;11.37;;;;;;;17.89;81.38;99233.06;125028;1099;104182;-79
2023/10/26 08:27:55;;;;;;;23.40;10.50;;;;;;;17.91;81.12;99231.25;124798;1099;104309;-82
2023/10/26 08:30:24;;;;;;;26.80;10.60;;;;;;;17.96;80.90;99231.19;126321;1099;101830;-83
2023/10/26 08:32:56;;;;;;;29.40;10.87;;;;;;;18.03;80.68;99230.20;126242;1099;101744;-85
2023/10/26 08:35:25;;;;;;;25.25;10.30;;;;;;;18.12;80.42;99232.72;126222;1098;101751;-77
2023/10/26 08:38:01;;;;;;;24.17;10.60;;;;;;;18.25;80.93;99228.09;124802;1102;101946;-81
2023/10/26 08:40:31;;;;;;;27.60;9.40;;;;;;;18.36;80.28;99219.09;125487;1102;102872;-81
2023/10/26 08:43:05;;;;;;;20.77;9.07;;;;;;;18.45;80.74;99224.22;125299;1102;103179;-79
2023/10/26 08:45:41;;;;;;;23.18;9.65;;;;;;;18.52;80.15;99220.56;125445;1102;102084;-79
2023/10/26 08:48:14;;;;;;;24.50;10.30;;;;;;;18.60;80.12;99223.95;125631;1098;104083;-86
2023/10/26 08:50:44;;;;;;;22.33;9.90;;;;;;;18.65;79.57;99222.12;125001;1102;104334;-79
2023/10/26 08:53:20;;;;;;;21.65;8.95;;;;;;;18.65;79.25;99218.56;126106;1098;102008;-79
2023/10/26 08:55:55;;;;;;;20.80;9.23;;;;;;;18.71;79.10;99228.22;124807;1099;104291;-82
2023/10/26 08:58:26;;;;;;;22.27;8.70;;;;;;;18.80;79.44;99220.08;125037;1099;104060;-87
2023/10/26 09:01:04;;;;;;;22.90;8.97;;;;;;;18.92;79.08;99214.58;127127;1099;102054;-83
2023/10/26 09:04:06;;;;;;;22.00;8.60;;;;;;;19.08;78.84;99212.48;125305;1102;104208;-80
2023/10/26 09:06:46;;;;;;;17.03;7.80;;;;;;;19.19;77.74;99217.59;126095;1098;104402;-79
2023/10/26 09:09:21;;;;;;;24.07;9.07;;;;;;;19.24;77.63;99218.37;125971;1098;101978;-80
2023/10/26 09:12:12;;;;;;;18.83;8.47;;;;;;;19.25;77.15;99220.13;124802;1102;102139;-78
2023/10/26 09:14:58;;;;;;;22.77;8.40;;;;;;;19.29;77.04;99216.52;124945;1099;104224;-84
2023/10/26 09:17:28;;;;;;;27.50;8.67;;;;;;;19.34;76.70;99203.13;124829;1099;102003;-76
2023/10/26 09:19:59;;;;;;;21.53;8.60;;;;;;;19.40;76.63;99201.20;124972;1099;104374;-82
2023/10/26 09:22:38;;;;;;;23.13;8.07;;;;;;;19.49;76.88;99194.78;125070;1099;102023;-84
2023/10/26 09:25:12;;;;;;;18.80;7.80;;;;;;;19.57;76.22;99192.86;125352;1099;104229;-75
2023/10/26 09:27:42;;;;;;;23.60;7.80;;;;;;;19.63;76.91;99182.98;124719;1099;104341;-77
2023/10/26 09:30:26;;;;;;;19.43;7.47;;;;;;;19.69;76.30;99170.41;125166;1099;101785;-78
2023/10/26 09:32:56;;;;;;;16.17;6.72;;;;;;;19.78;76.03;99173.83;124782;1099;102056;-77
2023/10/26 09:35:30;;;;;;;11.60;5.23;;;;;;;19.83;75.28;99172.78;125170;1098;104396;-80
2023/10/26 09:38:00;;;;;;;14.00;4.87;;;;;;;19.86;75.63;99167.39;124488;1099;102200;-76
2023/10/26 09:40:29;;;;;;;10.03;3.40;;;;;;;19.89;75.21;99161.13;124611;1099;101929;-75
2023/10/26 09:43:01;;;;;;;9.00;3.60;;;;;;;19.92;74.62;99166.38;124523;1099;104290;-77
2023/10/26 09:45:30;;;;;;;10.23;4.07;;;;;;;19.97;73.82;99164.47;124595;1102;104331;-76
2023/10/26 09:48:00;;;;;;;9.90;4.23;;;;;;;20.00;73.79;99152.89;124591;1102;104741;-79
2023/10/26 09:50:29;;;;;;;10.93;4.93;;;;;;;20.02;73.42;99154.58;124610;1099;104313;-77
2023/10/26 09:52:59;;;;;;;14.77;4.97;;;;;;;20.06;73.31;99153.60;124509;1099;104220;-77
2023/10/26 09:55:28;;;;;;;12.97;4.80;;;;;;;20.11;72.50;99149.03;124652;1098;101830;-80
2023/10/26 09:58:03;;;;;;;12.57;4.93;;;;;;;20.13;72.39;99148.13;124474;1099;102029;-76
2023/10/26 10:00:33;;;;;;;9.63;4.20;;;;;;;20.10;73.06;99141.97;125142;1102;101869;-80
2023/10/26 10:03:14;;;;;;;10.17;3.97;;;;;;;20.14;72.28;99136.57;124684;1099;101882;-78
2023/10/26 10:05:44;;;;;;;9.43;3.77;;;;;;;20.19;72.53;99130.19;124614;1099;104172;-80
2023/10/26 10:08:16;;;;;;;11.10;4.00;;;;;;;20.27;72.36;99128.23;124779;1099;104332;-79
2023/10/26 10:11:15;;;;;;;12.70;4.33;;;;;;;20.33;71.20;99126.31;124555;1099;101900;-77
2023/10/26 10:13:46;;;;;;;7.20;3.37;;;;;;;20.40;71.28;99141.23;125012;1102;101897;-78
2023/10/26 10:16:51;;;;;;;7.63;3.30;;;;;;;20.42;70.67;99126.94;124718;1099;101968;-79
2023/10/26 10:19:22;;;;;;;6.20;3.00;;;;;;;20.59;70.25;99139.81;124485;1105;104306;-81
2023/10/26 10:21:51;;;;;;;7.83;2.90;;;;;;;20.66;70.28;99137.88;124951;1099;102168;-79
2023/10/26 10:24:52;;;;;;;6.93;2.67;;;;;;;20.75;70.41;99128.77;126794;1099;101908;-85
2023/10/26 10:27:21;;;;;;;4.60;2.30;;;;;;;20.89;69.64;99125.72;127479;1098;101543;-82
2023/10/26 10:29:50;;;;;;;6.70;2.50;;;;;;;20.95;68.60;99115.73;125595;1102;101938;-84
2023/10/26 10:32:49;;;;;;;6.30;2.20;;;;;;;21.04;69.02;99111.08;125783;1099;109571;-83
2023/10/26 10:35:44;;;;;;;5.53;2.80;;;;;;;21.09;68.13;99112.67;125666;1099;101964;-84
2023/10/26 10:38:21;;;;;;;3.20;2.23;;;;;;;21.14;67.39;99097.40;126919;1098;102254;-81
2023/10/26 10:41:14;;;;;;;7.07;2.20;;;;;;;21.18;66.05;99103.53;125513;1100;104396;-81
2023/10/26 10:44:01;;;;;;;7.77;2.40;;;;;;;21.18;65.25;99098.20;125700;1099;101672;-78
2023/10/26 10:46:31;;;;;;;4.93;2.33;;;;;;;21.19;65.74;99095.48;125581;1099;104217;-84
2023/10/26 10:49:06;;;;;;;6.83;2.23;;;;;;;21.26;65.07;99090.83;126438;1099;102012;-83
2023/10/26 10:51:39;;;;;;;6.40;2.40;;;;;;;21.37;64.84;99087.84;126711;1098;104176;-87
2023/10/26 10:54:11;;;;;;;6.15;2.47;;;;;;;21.49;64.95;99076.81;126107;1099;104176;-82
2023/10/26 10:56:48;;;;;;;6.63;2.60;;;;;;;21.65;63.87;99081.66;125585;1099;104057;-83
2023/10/26 10:59:23;;;;;;;5.70;2.40;;;;;;;21.74;63.65;99078.70;127762;1098;101395;-87
2023/10/26 11:02:11;;;;;;;3.57;2.00;;;;;;;21.86;63.32;99080.97;127374;1098;101446;-86
2023/10/26 11:04:55;;;;;;;5.57;2.20;;;;;;;22.00;62.82;99085.84;126943;1098;101885;-80
2023/10/26 11:07:28;;;;;;;6.07;2.20;;;;;;;22.08;62.64;99080.25;126284;1098;102237;-80
2023/10/26 11:10:15;;;;;;;7.30;2.42;;;;;;;22.14;62.66;99076.47;125865;1099;101824;-79
2023/10/26 11:12:51;;;;;;;6.23;2.40;;;;;;;22.23;61.58;99073.48;126571;1098;101910;-82
2023/10/26 11:15:21;;;;;;;5.80;2.37;;;;;;;22.28;61.37;99071.52;125759;1099;102054;-79
2023/10/26 11:17:54;;;;;;;7.47;2.20;;;;;;;22.28;60.36;99065.31;127008;1097;101963;-82
2023/10/26 11:20:43;;;;;;;5.40;1.90;;;;;;;22.34;59.89;99059.78;126358;1098;101703;-80
2023/10/26 11:23:16;;;;;;;8.00;2.50;;;;;;;22.40;60.32;99054.22;126330;1102;101862;-83
2023/10/26 11:25:47;;;;;;;5.03;2.00;;;;;;;22.46;59.58;99055.81;126324;1099;101239;-79
2023/10/26 11:28:43;;;;;;;4.20;1.97;;;;;;;22.51;59.00;99052.02;127816;1098;101572;-82
2023/10/26 11:31:14;;;;;;;3.27;1.90;;;;;;;22.57;59.39;99054.47;125730;1102;101870;-83
2023/10/26 11:33:57;;;;;;;3.60;2.10;;;;;;;22.58;58.92;99056.23;126202;1099;107717;-78
2023/10/26 11:36:28;;;;;;;;;;;;;;;22.55;57.59;99044.79;127081;1098;101857;-78